sensor_id;sensor_type;location;lat;lon;timestamp;P1;durP1;ratioP1;P2;durP2;ratioP2
9541;SDS011;4809;48.224;8.572;2024-01-11T00:00:32;35.83;;;19.20;;
9541;SDS011;4809;48.224;8.572;2024-01-11T00:02:58;35.90;;;19.93;;
9541;SDS011;4809;48.224;8.572;2024-01-11T00:05:23;33.30;;;19.43;;
9541;SDS011;4809;48.224;8.572;2024-01-11T00:07:49;38.90;;;20.57;;
9541;SDS011;4809;48.224;8.572;2024-01-11T00:10:15;34.33;;;18.43;;
9541;SDS011;4809;48.224;8.572;2024-01-11T00:12:45;33.17;;;19.00;;
9541;SDS011;4809;48.224;8.572;2024-01-11T00:15:10;36.77;;;18.77;;
9541;SDS011;4809;48.224;8.572;2024-01-11T00:17:36;40.73;;;21.43;;
9541;SDS011;4809;48.224;8.572;2024-01-11T00:20:01;42.33;;;22.40;;
9541;SDS011;4809;48.224;8.572;2024-01-11T00:22:26;40.23;;;21.40;;
9541;SDS011;4809;48.224;8.572;2024-01-11T00:24:52;33.53;;;19.50;;
9541;SDS011;4809;48.224;8.572;2024-01-11T00:27:17;44.63;;;22.40;;
9541;SDS011;4809;48.224;8.572;2024-01-11T00:29:43;39.90;;;21.43;;
9541;SDS011;4809;48.224;8.572;2024-01-11T00:32:08;39.73;;;20.50;;
9541;SDS011;4809;48.224;8.572;2024-01-11T00:34:33;41.73;;;21.87;;
9541;SDS011;4809;48.224;8.572;2024-01-11T00:37:00;38.43;;;20.20;;
9541;SDS011;4809;48.224;8.572;2024-01-11T00:39:26;37.73;;;20.13;;
9541;SDS011;4809;48.224;8.572;2024-01-11T00:41:51;39.23;;;20.83;;
9541;SDS011;4809;48.224;8.572;2024-01-11T00:44:17;38.53;;;19.93;;
9541;SDS011;4809;48.224;8.572;2024-01-11T00:46:42;40.93;;;21.97;;
9541;SDS011;4809;48.224;8.572;2024-01-11T00:49:07;36.53;;;20.17;;
9541;SDS011;4809;48.224;8.572;2024-01-11T00:51:33;41.60;;;22.13;;
9541;SDS011;4809;48.224;8.572;2024-01-11T00:53:58;39.30;;;20.67;;
9541;SDS011;4809;48.224;8.572;2024-01-11T00:56:23;36.83;;;20.20;;
9541;SDS011;4809;48.224;8.572;2024-01-11T00:58:49;40.63;;;21.03;;
9541;SDS011;4809;48.224;8.572;2024-01-11T01:01:14;34.20;;;18.80;;
9541;SDS011;4809;48.224;8.572;2024-01-11T01:03:40;37.60;;;20.17;;
9541;SDS011;4809;48.224;8.572;2024-01-11T01:06:05;36.63;;;19.80;;
9541;SDS011;4809;48.224;8.572;2024-01-11T01:08:31;38.70;;;20.50;;
9541;SDS011;4809;48.224;8.572;2024-01-11T01:10:56;36.67;;;20.73;;
9541;SDS011;4809;48.224;8.572;2024-01-11T01:13:21;44.40;;;22.43;;
9541;SDS011;4809;48.224;8.572;2024-01-11T01:15:47;38.23;;;20.90;;
9541;SDS011;4809;48.224;8.572;2024-01-11T01:18:12;45.40;;;22.00;;
9541;SDS011;4809;48.224;8.572;2024-01-11T01:20:38;43.00;;;22.43;;
9541;SDS011;4809;48.224;8.572;2024-01-11T01:23:03;39.93;;;20.93;;
9541;SDS011;4809;48.224;8.572;2024-01-11T01:25:28;40.60;;;21.07;;
9541;SDS011;4809;48.224;8.572;2024-01-11T01:27:55;41.50;;;21.13;;
9541;SDS011;4809;48.224;8.572;2024-01-11T01:30:20;32.27;;;18.53;;
9541;SDS011;4809;48.224;8.572;2024-01-11T01:32:46;38.20;;;19.40;;
9541;SDS011;4809;48.224;8.572;2024-01-11T01:35:12;38.20;;;19.63;;
9541;SDS011;4809;48.224;8.572;2024-01-11T01:37:37;35.07;;;19.10;;
9541;SDS011;4809;48.224;8.572;2024-01-11T01:40:02;34.87;;;19.37;;
9541;SDS011;4809;48.224;8.572;2024-01-11T01:42:28;37.33;;;19.77;;
9541;SDS011;4809;48.224;8.572;2024-01-11T01:44:57;33.93;;;18.70;;
9541;SDS011;4809;48.224;8.572;2024-01-11T01:47:22;35.83;;;20.03;;
9541;SDS011;4809;48.224;8.572;2024-01-11T01:49:47;39.40;;;19.40;;
9541;SDS011;4809;48.224;8.572;2024-01-11T01:52:13;37.60;;;20.03;;
9541;SDS011;4809;48.224;8.572;2024-01-11T01:54:39;35.43;;;18.77;;
9541;SDS011;4809;48.224;8.572;2024-01-11T01:57:04;35.47;;;18.77;;
9541;SDS011;4809;48.224;8.572;2024-01-11T01:59:32;32.30;;;18.23;;
9541;SDS011;4809;48.224;8.572;2024-01-11T02:01:58;33.10;;;18.70;;
9541;SDS011;4809;48.224;8.572;2024-01-11T02:04:23;31.20;;;17.63;;
9541;SDS011;4809;48.224;8.572;2024-01-11T02:06:49;34.50;;;19.63;;
9541;SDS011;4809;48.224;8.572;2024-01-11T02:09:15;36.30;;;19.73;;
9541;SDS011;4809;48.224;8.572;2024-01-11T02:11:44;33.97;;;18.63;;
9541;SDS011;4809;48.224;8.572;2024-01-11T02:14:10;32.70;;;18.27;;
9541;SDS011;4809;48.224;8.572;2024-01-11T02:16:35;31.97;;;17.90;;
9541;SDS011;4809;48.224;8.572;2024-01-11T02:19:01;32.67;;;18.10;;
9541;SDS011;4809;48.224;8.572;2024-01-11T02:21:27;34.17;;;17.83;;
9541;SDS011;4809;48.224;8.572;2024-01-11T02:24:13;33.60;;;19.13;;
9541;SDS011;4809;48.224;8.572;2024-01-11T02:26:44;33.60;;;17.43;;
9541;SDS011;4809;48.224;8.572;2024-01-11T02:29:23;35.07;;;18.20;;
9541;SDS011;4809;48.224;8.572;2024-01-11T02:31:48;34.37;;;19.00;;
9541;SDS011;4809;48.224;8.572;2024-01-11T02:34:14;39.47;;;19.60;;
9541;SDS011;4809;48.224;8.572;2024-01-11T02:36:39;31.67;;;18.40;;
9541;SDS011;4809;48.224;8.572;2024-01-11T02:39:05;33.87;;;18.33;;
9541;SDS011;4809;48.224;8.572;2024-01-11T02:41:30;34.17;;;17.57;;
9541;SDS011;4809;48.224;8.572;2024-01-11T02:43:57;37.73;;;19.60;;
9541;SDS011;4809;48.224;8.572;2024-01-11T02:46:22;37.47;;;19.30;;
9541;SDS011;4809;48.224;8.572;2024-01-11T02:48:48;36.00;;;17.87;;
9541;SDS011;4809;48.224;8.572;2024-01-11T02:51:13;36.93;;;18.93;;
9541;SDS011;4809;48.224;8.572;2024-01-11T02:53:39;38.10;;;19.37;;
9541;SDS011;4809;48.224;8.572;2024-01-11T02:56:04;32.97;;;18.70;;
9541;SDS011;4809;48.224;8.572;2024-01-11T02:58:30;34.93;;;18.00;;
9541;SDS011;4809;48.224;8.572;2024-01-11T03:00:55;38.80;;;20.47;;
9541;SDS011;4809;48.224;8.572;2024-01-11T03:03:20;38.77;;;19.67;;
9541;SDS011;4809;48.224;8.572;2024-01-11T03:05:46;32.80;;;18.63;;
9541;SDS011;4809;48.224;8.572;2024-01-11T03:08:11;36.07;;;18.60;;
9541;SDS011;4809;48.224;8.572;2024-01-11T03:10:39;34.57;;;18.30;;
9541;SDS011;4809;48.224;8.572;2024-01-11T03:13:05;34.53;;;18.10;;
9541;SDS011;4809;48.224;8.572;2024-01-11T03:15:33;34.47;;;18.70;;
9541;SDS011;4809;48.224;8.572;2024-01-11T03:17:58;34.30;;;18.53;;
9541;SDS011;4809;48.224;8.572;2024-01-11T03:20:24;34.83;;;18.43;;
9541;SDS011;4809;48.224;8.572;2024-01-11T03:22:52;36.33;;;19.53;;
9541;SDS011;4809;48.224;8.572;2024-01-11T03:25:18;33.90;;;18.90;;
9541;SDS011;4809;48.224;8.572;2024-01-11T03:27:43;38.20;;;20.37;;
9541;SDS011;4809;48.224;8.572;2024-01-11T03:30:12;38.17;;;20.20;;
9541;SDS011;4809;48.224;8.572;2024-01-11T03:32:38;34.97;;;18.47;;
9541;SDS011;4809;48.224;8.572;2024-01-11T03:35:08;36.80;;;19.07;;
9541;SDS011;4809;48.224;8.572;2024-01-11T03:37:34;35.00;;;18.93;;
9541;SDS011;4809;48.224;8.572;2024-01-11T03:40:00;34.90;;;18.33;;
9541;SDS011;4809;48.224;8.572;2024-01-11T03:42:27;35.53;;;19.93;;
9541;SDS011;4809;48.224;8.572;2024-01-11T03:44:52;38.00;;;20.33;;
9541;SDS011;4809;48.224;8.572;2024-01-11T03:47:17;35.90;;;19.33;;
9541;SDS011;4809;48.224;8.572;2024-01-11T03:49:43;34.50;;;18.47;;
9541;SDS011;4809;48.224;8.572;2024-01-11T03:52:10;37.97;;;20.13;;
9541;SDS011;4809;48.224;8.572;2024-01-11T03:54:35;35.73;;;19.37;;
9541;SDS011;4809;48.224;8.572;2024-01-11T03:57:01;36.67;;;19.23;;
9541;SDS011;4809;48.224;8.572;2024-01-11T03:59:26;34.30;;;18.03;;
9541;SDS011;4809;48.224;8.572;2024-01-11T04:01:51;35.03;;;18.50;;
9541;SDS011;4809;48.224;8.572;2024-01-11T04:04:17;34.97;;;19.30;;
9541;SDS011;4809;48.224;8.572;2024-01-11T04:06:43;32.70;;;18.07;;
9541;SDS011;4809;48.224;8.572;2024-01-11T04:09:08;36.53;;;18.67;;
9541;SDS011;4809;48.224;8.572;2024-01-11T04:11:33;32.80;;;18.17;;
9541;SDS011;4809;48.224;8.572;2024-01-11T04:14:00;33.57;;;17.73;;
9541;SDS011;4809;48.224;8.572;2024-01-11T04:16:26;32.83;;;18.20;;
9541;SDS011;4809;48.224;8.572;2024-01-11T04:18:52;32.00;;;16.77;;
9541;SDS011;4809;48.224;8.572;2024-01-11T04:21:21;30.03;;;16.97;;
9541;SDS011;4809;48.224;8.572;2024-01-11T04:23:53;31.90;;;17.60;;
9541;SDS011;4809;48.224;8.572;2024-01-11T04:26:18;35.40;;;17.87;;
9541;SDS011;4809;48.224;8.572;2024-01-11T04:28:44;36.07;;;18.70;;
9541;SDS011;4809;48.224;8.572;2024-01-11T04:31:11;31.17;;;17.10;;
9541;SDS011;4809;48.224;8.572;2024-01-11T04:33:39;30.90;;;16.70;;
9541;SDS011;4809;48.224;8.572;2024-01-11T04:36:05;32.07;;;17.10;;
9541;SDS011;4809;48.224;8.572;2024-01-11T04:38:31;29.17;;;16.77;;
9541;SDS011;4809;48.224;8.572;2024-01-11T04:40:56;29.13;;;16.27;;
9541;SDS011;4809;48.224;8.572;2024-01-11T04:43:21;31.43;;;16.57;;
9541;SDS011;4809;48.224;8.572;2024-01-11T04:45:47;37.57;;;17.47;;
9541;SDS011;4809;48.224;8.572;2024-01-11T04:48:13;34.50;;;17.83;;
9541;SDS011;4809;48.224;8.572;2024-01-11T04:50:38;32.77;;;17.10;;
9541;SDS011;4809;48.224;8.572;2024-01-11T04:53:03;31.27;;;16.63;;
9541;SDS011;4809;48.224;8.572;2024-01-11T04:55:29;33.47;;;18.87;;
9541;SDS011;4809;48.224;8.572;2024-01-11T04:57:54;30.27;;;16.70;;
9541;SDS011;4809;48.224;8.572;2024-01-11T05:00:19;29.57;;;16.60;;
9541;SDS011;4809;48.224;8.572;2024-01-11T05:02:45;36.30;;;18.27;;
9541;SDS011;4809;48.224;8.572;2024-01-11T05:05:10;33.40;;;17.70;;
9541;SDS011;4809;48.224;8.572;2024-01-11T05:07:35;30.50;;;16.93;;
9541;SDS011;4809;48.224;8.572;2024-01-11T05:10:01;31.77;;;17.53;;
9541;SDS011;4809;48.224;8.572;2024-01-11T05:12:27;32.23;;;18.00;;
9541;SDS011;4809;48.224;8.572;2024-01-11T05:14:53;31.97;;;17.37;;
9541;SDS011;4809;48.224;8.572;2024-01-11T05:17:18;32.97;;;17.70;;
9541;SDS011;4809;48.224;8.572;2024-01-11T05:19:43;33.77;;;19.03;;
9541;SDS011;4809;48.224;8.572;2024-01-11T05:22:09;32.70;;;17.97;;
9541;SDS011;4809;48.224;8.572;2024-01-11T05:24:34;36.37;;;19.13;;
9541;SDS011;4809;48.224;8.572;2024-01-11T05:26:59;33.10;;;18.90;;
9541;SDS011;4809;48.224;8.572;2024-01-11T05:29:25;38.77;;;20.47;;
9541;SDS011;4809;48.224;8.572;2024-01-11T05:31:50;37.00;;;19.50;;
9541;SDS011;4809;48.224;8.572;2024-01-11T05:34:15;35.93;;;19.50;;
9541;SDS011;4809;48.224;8.572;2024-01-11T05:36:41;32.67;;;17.73;;
9541;SDS011;4809;48.224;8.572;2024-01-11T05:39:06;37.47;;;19.53;;
9541;SDS011;4809;48.224;8.572;2024-01-11T05:41:32;35.60;;;18.53;;
9541;SDS011;4809;48.224;8.572;2024-01-11T05:43:57;32.80;;;17.93;;
9541;SDS011;4809;48.224;8.572;2024-01-11T05:46:23;36.23;;;19.20;;
9541;SDS011;4809;48.224;8.572;2024-01-11T05:48:48;34.67;;;18.67;;
9541;SDS011;4809;48.224;8.572;2024-01-11T05:51:13;40.60;;;22.67;;
9541;SDS011;4809;48.224;8.572;2024-01-11T05:53:39;38.17;;;19.07;;
9541;SDS011;4809;48.224;8.572;2024-01-11T05:56:08;31.67;;;18.00;;
9541;SDS011;4809;48.224;8.572;2024-01-11T05:58:34;41.70;;;21.77;;
9541;SDS011;4809;48.224;8.572;2024-01-11T06:01:01;35.03;;;19.10;;
9541;SDS011;4809;48.224;8.572;2024-01-11T06:03:27;32.40;;;16.73;;
9541;SDS011;4809;48.224;8.572;2024-01-11T06:05:53;37.40;;;17.67;;
9541;SDS011;4809;48.224;8.572;2024-01-11T06:08:18;37.63;;;19.30;;
9541;SDS011;4809;48.224;8.572;2024-01-11T06:10:46;37.00;;;19.87;;
9541;SDS011;4809;48.224;8.572;2024-01-11T06:13:12;38.13;;;19.83;;
9541;SDS011;4809;48.224;8.572;2024-01-11T06:15:37;32.33;;;17.50;;
9541;SDS011;4809;48.224;8.572;2024-01-11T06:18:02;29.73;;;17.87;;
9541;SDS011;4809;48.224;8.572;2024-01-11T06:20:29;33.47;;;18.60;;
9541;SDS011;4809;48.224;8.572;2024-01-11T06:22:55;33.17;;;17.67;;
9541;SDS011;4809;48.224;8.572;2024-01-11T06:25:20;31.43;;;15.70;;
9541;SDS011;4809;48.224;8.572;2024-01-11T06:27:46;31.90;;;16.13;;
9541;SDS011;4809;48.224;8.572;2024-01-11T06:30:12;32.70;;;16.47;;
9541;SDS011;4809;48.224;8.572;2024-01-11T06:32:37;32.33;;;17.23;;
9541;SDS011;4809;48.224;8.572;2024-01-11T06:35:03;34.63;;;17.60;;
9541;SDS011;4809;48.224;8.572;2024-01-11T06:37:29;35.27;;;18.17;;
9541;SDS011;4809;48.224;8.572;2024-01-11T06:39:54;32.60;;;17.30;;
9541;SDS011;4809;48.224;8.572;2024-01-11T06:42:19;32.83;;;17.30;;
9541;SDS011;4809;48.224;8.572;2024-01-11T06:44:45;33.97;;;17.63;;
9541;SDS011;4809;48.224;8.572;2024-01-11T06:47:10;34.57;;;17.53;;
9541;SDS011;4809;48.224;8.572;2024-01-11T06:49:39;29.97;;;16.83;;
9541;SDS011;4809;48.224;8.572;2024-01-11T06:52:07;33.93;;;19.37;;
9541;SDS011;4809;48.224;8.572;2024-01-11T06:54:32;34.10;;;18.20;;
9541;SDS011;4809;48.224;8.572;2024-01-11T06:56:58;36.87;;;18.93;;
9541;SDS011;4809;48.224;8.572;2024-01-11T06:59:23;35.60;;;18.93;;
9541;SDS011;4809;48.224;8.572;2024-01-11T07:01:49;35.80;;;19.47;;
9541;SDS011;4809;48.224;8.572;2024-01-11T07:04:14;33.00;;;18.10;;
9541;SDS011;4809;48.224;8.572;2024-01-11T07:06:40;30.83;;;17.30;;
9541;SDS011;4809;48.224;8.572;2024-01-11T07:09:05;36.53;;;18.93;;
9541;SDS011;4809;48.224;8.572;2024-01-11T07:11:31;37.77;;;19.20;;
9541;SDS011;4809;48.224;8.572;2024-01-11T07:13:57;34.77;;;19.37;;
9541;SDS011;4809;48.224;8.572;2024-01-11T07:16:22;34.50;;;18.37;;
9541;SDS011;4809;48.224;8.572;2024-01-11T07:18:48;33.63;;;17.40;;
9541;SDS011;4809;48.224;8.572;2024-01-11T07:21:19;36.17;;;18.53;;
9541;SDS011;4809;48.224;8.572;2024-01-11T07:23:47;32.27;;;17.53;;
9541;SDS011;4809;48.224;8.572;2024-01-11T07:26:12;30.87;;;18.10;;
9541;SDS011;4809;48.224;8.572;2024-01-11T07:28:37;34.30;;;18.50;;
9541;SDS011;4809;48.224;8.572;2024-01-11T07:31:03;33.63;;;17.60;;
9541;SDS011;4809;48.224;8.572;2024-01-11T07:33:29;37.50;;;18.57;;
9541;SDS011;4809;48.224;8.572;2024-01-11T07:35:54;29.43;;;17.90;;
9541;SDS011;4809;48.224;8.572;2024-01-11T07:38:20;32.33;;;18.17;;
9541;SDS011;4809;48.224;8.572;2024-01-11T07:40:46;37.87;;;19.80;;
9541;SDS011;4809;48.224;8.572;2024-01-11T07:43:11;33.63;;;18.50;;
9541;SDS011;4809;48.224;8.572;2024-01-11T07:45:36;40.87;;;20.57;;
9541;SDS011;4809;48.224;8.572;2024-01-11T07:48:02;40.50;;;21.90;;
9541;SDS011;4809;48.224;8.572;2024-01-11T07:50:28;45.10;;;24.40;;
9541;SDS011;4809;48.224;8.572;2024-01-11T07:52:54;53.93;;;26.63;;
9541;SDS011;4809;48.224;8.572;2024-01-11T07:55:21;58.23;;;32.27;;
9541;SDS011;4809;48.224;8.572;2024-01-11T07:57:48;56.50;;;29.97;;
9541;SDS011;4809;48.224;8.572;2024-01-11T08:00:15;49.77;;;24.80;;
9541;SDS011;4809;48.224;8.572;2024-01-11T08:02:40;43.70;;;22.70;;
9541;SDS011;4809;48.224;8.572;2024-01-11T08:05:06;42.07;;;21.83;;
9541;SDS011;4809;48.224;8.572;2024-01-11T08:07:32;40.60;;;21.60;;
9541;SDS011;4809;48.224;8.572;2024-01-11T08:09:57;40.83;;;21.67;;
9541;SDS011;4809;48.224;8.572;2024-01-11T08:12:22;38.70;;;21.33;;
9541;SDS011;4809;48.224;8.572;2024-01-11T08:14:48;42.93;;;20.93;;
9541;SDS011;4809;48.224;8.572;2024-01-11T08:17:14;42.50;;;22.63;;
9541;SDS011;4809;48.224;8.572;2024-01-11T08:19:40;39.53;;;21.23;;
9541;SDS011;4809;48.224;8.572;2024-01-11T08:22:07;47.83;;;23.93;;
9541;SDS011;4809;48.224;8.572;2024-01-11T08:24:32;54.33;;;26.23;;
9541;SDS011;4809;48.224;8.572;2024-01-11T08:27:00;45.80;;;22.80;;
9541;SDS011;4809;48.224;8.572;2024-01-11T08:29:25;38.70;;;21.23;;
9541;SDS011;4809;48.224;8.572;2024-01-11T08:31:51;37.57;;;20.73;;
9541;SDS011;4809;48.224;8.572;2024-01-11T08:34:16;46.80;;;24.90;;
9541;SDS011;4809;48.224;8.572;2024-01-11T08:36:41;54.90;;;29.37;;
9541;SDS011;4809;48.224;8.572;2024-01-11T08:39:07;43.70;;;24.93;;
9541;SDS011;4809;48.224;8.572;2024-01-11T08:41:33;46.63;;;23.90;;
9541;SDS011;4809;48.224;8.572;2024-01-11T08:44:00;41.53;;;22.90;;
9541;SDS011;4809;48.224;8.572;2024-01-11T08:46:25;37.63;;;21.90;;
9541;SDS011;4809;48.224;8.572;2024-01-11T08:48:52;41.37;;;22.03;;
9541;SDS011;4809;48.224;8.572;2024-01-11T08:51:18;49.97;;;24.63;;
9541;SDS011;4809;48.224;8.572;2024-01-11T08:53:43;48.30;;;25.10;;
9541;SDS011;4809;48.224;8.572;2024-01-11T08:56:09;48.57;;;25.00;;
9541;SDS011;4809;48.224;8.572;2024-01-11T08:58:34;43.33;;;22.93;;
9541;SDS011;4809;48.224;8.572;2024-01-11T09:00:59;37.97;;;21.70;;
9541;SDS011;4809;48.224;8.572;2024-01-11T09:03:25;40.67;;;22.50;;
9541;SDS011;4809;48.224;8.572;2024-01-11T09:05:51;40.43;;;21.13;;
9541;SDS011;4809;48.224;8.572;2024-01-11T09:08:16;34.83;;;20.50;;
9541;SDS011;4809;48.224;8.572;2024-01-11T09:10:42;31.17;;;18.60;;
9541;SDS011;4809;48.224;8.572;2024-01-11T09:13:07;39.33;;;21.00;;
9541;SDS011;4809;48.224;8.572;2024-01-11T09:15:33;39.13;;;20.80;;
9541;SDS011;4809;48.224;8.572;2024-01-11T09:17:59;80.27;;;53.33;;
9541;SDS011;4809;48.224;8.572;2024-01-11T09:20:27;47.83;;;31.47;;
9541;SDS011;4809;48.224;8.572;2024-01-11T09:22:54;35.40;;;23.53;;
9541;SDS011;4809;48.224;8.572;2024-01-11T09:25:19;37.83;;;23.30;;
9541;SDS011;4809;48.224;8.572;2024-01-11T09:27:45;41.07;;;21.67;;
9541;SDS011;4809;48.224;8.572;2024-01-11T09:30:10;37.30;;;21.67;;
9541;SDS011;4809;48.224;8.572;2024-01-11T09:32:36;37.93;;;21.47;;
9541;SDS011;4809;48.224;8.572;2024-01-11T09:35:02;45.13;;;24.17;;
9541;SDS011;4809;48.224;8.572;2024-01-11T09:37:29;42.13;;;22.40;;
9541;SDS011;4809;48.224;8.572;2024-01-11T09:39:56;42.80;;;23.50;;
9541;SDS011;4809;48.224;8.572;2024-01-11T09:42:21;41.53;;;21.83;;
9541;SDS011;4809;48.224;8.572;2024-01-11T09:44:47;40.93;;;22.20;;
9541;SDS011;4809;48.224;8.572;2024-01-11T09:47:15;47.73;;;25.13;;
9541;SDS011;4809;48.224;8.572;2024-01-11T09:49:44;42.90;;;23.17;;
9541;SDS011;4809;48.224;8.572;2024-01-11T09:52:12;47.63;;;24.67;;
9541;SDS011;4809;48.224;8.572;2024-01-11T09:54:39;44.93;;;23.47;;
9541;SDS011;4809;48.224;8.572;2024-01-11T09:57:05;44.57;;;23.63;;
9541;SDS011;4809;48.224;8.572;2024-01-11T09:59:31;40.73;;;22.10;;
9541;SDS011;4809;48.224;8.572;2024-01-11T10:01:57;43.87;;;23.77;;
9541;SDS011;4809;48.224;8.572;2024-01-11T10:04:23;43.67;;;23.37;;
9541;SDS011;4809;48.224;8.572;2024-01-11T10:06:49;48.63;;;24.30;;
9541;SDS011;4809;48.224;8.572;2024-01-11T10:09:16;45.03;;;24.23;;
9541;SDS011;4809;48.224;8.572;2024-01-11T10:11:41;43.03;;;23.73;;
9541;SDS011;4809;48.224;8.572;2024-01-11T10:14:06;46.37;;;24.40;;
9541;SDS011;4809;48.224;8.572;2024-01-11T10:16:33;45.13;;;24.77;;
9541;SDS011;4809;48.224;8.572;2024-01-11T10:18:58;42.83;;;23.30;;
9541;SDS011;4809;48.224;8.572;2024-01-11T10:21:24;44.33;;;24.50;;
9541;SDS011;4809;48.224;8.572;2024-01-11T10:23:50;40.73;;;22.90;;
9541;SDS011;4809;48.224;8.572;2024-01-11T10:26:16;43.73;;;24.00;;
9541;SDS011;4809;48.224;8.572;2024-01-11T10:28:44;43.90;;;23.40;;
9541;SDS011;4809;48.224;8.572;2024-01-11T10:31:10;39.27;;;21.80;;
9541;SDS011;4809;48.224;8.572;2024-01-11T10:33:36;44.40;;;23.37;;
9541;SDS011;4809;48.224;8.572;2024-01-11T10:36:02;43.03;;;22.70;;
9541;SDS011;4809;48.224;8.572;2024-01-11T10:38:29;44.27;;;23.73;;
9541;SDS011;4809;48.224;8.572;2024-01-11T10:40:55;44.67;;;23.63;;
9541;SDS011;4809;48.224;8.572;2024-01-11T10:43:24;41.87;;;23.67;;
9541;SDS011;4809;48.224;8.572;2024-01-11T10:45:49;37.50;;;22.37;;
9541;SDS011;4809;48.224;8.572;2024-01-11T10:48:19;43.20;;;23.33;;
9541;SDS011;4809;48.224;8.572;2024-01-11T10:50:46;39.03;;;22.17;;
9541;SDS011;4809;48.224;8.572;2024-01-11T10:55:43;43.13;;;23.67;;
9541;SDS011;4809;48.224;8.572;2024-01-11T10:58:10;42.70;;;23.07;;
9541;SDS011;4809;48.224;8.572;2024-01-11T11:00:35;40.33;;;22.17;;
9541;SDS011;4809;48.224;8.572;2024-01-11T11:03:01;41.00;;;22.67;;
9541;SDS011;4809;48.224;8.572;2024-01-11T11:05:28;40.00;;;23.33;;
9541;SDS011;4809;48.224;8.572;2024-01-11T11:07:57;43.50;;;23.93;;
9541;SDS011;4809;48.224;8.572;2024-01-11T11:10:24;41.73;;;23.80;;
9541;SDS011;4809;48.224;8.572;2024-01-11T11:12:51;46.20;;;24.53;;
9541;SDS011;4809;48.224;8.572;2024-01-11T11:15:16;41.77;;;24.03;;
9541;SDS011;4809;48.224;8.572;2024-01-11T11:17:42;45.47;;;24.33;;
9541;SDS011;4809;48.224;8.572;2024-01-11T11:20:11;48.10;;;25.87;;
9541;SDS011;4809;48.224;8.572;2024-01-11T11:22:37;44.00;;;24.80;;
9541;SDS011;4809;48.224;8.572;2024-01-11T11:25:04;43.60;;;25.47;;
9541;SDS011;4809;48.224;8.572;2024-01-11T11:27:50;39.57;;;22.77;;
9541;SDS011;4809;48.224;8.572;2024-01-11T11:30:18;43.30;;;24.83;;
9541;SDS011;4809;48.224;8.572;2024-01-11T11:32:45;41.00;;;24.20;;
9541;SDS011;4809;48.224;8.572;2024-01-11T11:35:10;43.47;;;24.90;;
9541;SDS011;4809;48.224;8.572;2024-01-11T11:37:36;42.40;;;24.67;;
9541;SDS011;4809;48.224;8.572;2024-01-11T11:40:03;40.47;;;23.77;;
9541;SDS011;4809;48.224;8.572;2024-01-11T11:42:35;46.73;;;25.83;;
9541;SDS011;4809;48.224;8.572;2024-01-11T11:45:01;41.80;;;24.60;;
9541;SDS011;4809;48.224;8.572;2024-01-11T11:47:33;43.20;;;25.13;;
9541;SDS011;4809;48.224;8.572;2024-01-11T11:50:08;44.17;;;23.93;;
9541;SDS011;4809;48.224;8.572;2024-01-11T11:52:35;44.67;;;25.70;;
9541;SDS011;4809;48.224;8.572;2024-01-11T11:55:02;46.13;;;25.90;;
9541;SDS011;4809;48.224;8.572;2024-01-11T11:57:28;47.73;;;27.87;;
9541;SDS011;4809;48.224;8.572;2024-01-11T11:59:57;49.13;;;29.23;;
9541;SDS011;4809;48.224;8.572;2024-01-11T12:02:28;46.93;;;28.47;;
9541;SDS011;4809;48.224;8.572;2024-01-11T12:04:53;47.07;;;27.90;;
9541;SDS011;4809;48.224;8.572;2024-01-11T12:07:20;41.07;;;25.27;;
9541;SDS011;4809;48.224;8.572;2024-01-11T12:09:47;45.57;;;26.33;;
9541;SDS011;4809;48.224;8.572;2024-01-11T12:12:12;40.90;;;25.17;;
9541;SDS011;4809;48.224;8.572;2024-01-11T12:14:38;41.60;;;26.10;;
9541;SDS011;4809;48.224;8.572;2024-01-11T12:17:03;41.20;;;25.25;;
9541;SDS011;4809;48.224;8.572;2024-01-11T12:19:29;39.70;;;25.15;;
9541;SDS011;4809;48.224;8.572;2024-01-11T12:21:54;35.60;;;23.50;;
9541;SDS011;4809;48.224;8.572;2024-01-11T12:24:19;37.47;;;23.73;;
9541;SDS011;4809;48.224;8.572;2024-01-11T12:26:46;37.65;;;24.55;;
9541;SDS011;4809;48.224;8.572;2024-01-11T12:29:24;36.72;;;24.55;;
9541;SDS011;4809;48.224;8.572;2024-01-11T12:31:50;36.08;;;23.85;;
9541;SDS011;4809;48.224;8.572;2024-01-11T12:34:16;36.63;;;24.52;;
9541;SDS011;4809;48.224;8.572;2024-01-11T12:36:41;38.90;;;26.58;;
9541;SDS011;4809;48.224;8.572;2024-01-11T12:39:07;34.65;;;25.23;;
9541;SDS011;4809;48.224;8.572;2024-01-11T12:41:34;35.80;;;24.42;;
9541;SDS011;4809;48.224;8.572;2024-01-11T12:44:00;34.83;;;24.00;;
9541;SDS011;4809;48.224;8.572;2024-01-11T12:46:26;35.90;;;24.80;;
9541;SDS011;4809;48.224;8.572;2024-01-11T12:48:51;36.05;;;24.35;;
9541;SDS011;4809;48.224;8.572;2024-01-11T12:51:17;34.03;;;21.80;;
9541;SDS011;4809;48.224;8.572;2024-01-11T12:53:46;34.95;;;22.48;;
9541;SDS011;4809;48.224;8.572;2024-01-11T12:56:14;36.83;;;22.98;;
9541;SDS011;4809;48.224;8.572;2024-01-11T12:58:40;35.75;;;23.70;;
9541;SDS011;4809;48.224;8.572;2024-01-11T13:01:05;34.17;;;22.17;;
9541;SDS011;4809;48.224;8.572;2024-01-11T13:03:33;32.92;;;22.15;;
9541;SDS011;4809;48.224;8.572;2024-01-11T13:06:02;35.72;;;22.13;;
9541;SDS011;4809;48.224;8.572;2024-01-11T13:08:30;33.85;;;23.33;;
9541;SDS011;4809;48.224;8.572;2024-01-11T13:11:01;31.95;;;21.52;;
9541;SDS011;4809;48.224;8.572;2024-01-11T13:13:30;35.20;;;22.52;;
9541;SDS011;4809;48.224;8.572;2024-01-11T13:15:59;30.70;;;21.52;;
9541;SDS011;4809;48.224;8.572;2024-01-11T13:18:24;35.72;;;23.88;;
9541;SDS011;4809;48.224;8.572;2024-01-11T13:20:50;35.85;;;24.08;;
9541;SDS011;4809;48.224;8.572;2024-01-11T13:23:19;34.47;;;23.10;;
9541;SDS011;4809;48.224;8.572;2024-01-11T13:25:46;36.75;;;24.33;;
9541;SDS011;4809;48.224;8.572;2024-01-11T13:28:12;37.92;;;25.10;;
9541;SDS011;4809;48.224;8.572;2024-01-11T13:30:41;34.13;;;23.35;;
9541;SDS011;4809;48.224;8.572;2024-01-11T13:33:08;31.00;;;22.13;;
9541;SDS011;4809;48.224;8.572;2024-01-11T13:35:37;36.75;;;24.45;;
9541;SDS011;4809;48.224;8.572;2024-01-11T13:38:04;38.53;;;25.70;;
9541;SDS011;4809;48.224;8.572;2024-01-11T13:40:32;47.03;;;34.55;;
9541;SDS011;4809;48.224;8.572;2024-01-11T13:42:59;38.00;;;27.38;;
9541;SDS011;4809;48.224;8.572;2024-01-11T13:45:27;35.05;;;23.65;;
9541;SDS011;4809;48.224;8.572;2024-01-11T13:47:53;33.45;;;24.27;;
9541;SDS011;4809;48.224;8.572;2024-01-11T13:50:22;37.17;;;25.13;;
9541;SDS011;4809;48.224;8.572;2024-01-11T13:52:49;41.67;;;28.40;;
9541;SDS011;4809;48.224;8.572;2024-01-11T13:55:15;33.95;;;24.23;;
9541;SDS011;4809;48.224;8.572;2024-01-11T13:57:41;32.58;;;22.90;;
9541;SDS011;4809;48.224;8.572;2024-01-11T14:00:09;33.53;;;23.63;;
9541;SDS011;4809;48.224;8.572;2024-01-11T14:02:36;38.13;;;26.40;;
9541;SDS011;4809;48.224;8.572;2024-01-11T14:05:02;34.78;;;24.13;;
9541;SDS011;4809;48.224;8.572;2024-01-11T14:07:28;33.00;;;24.10;;
9541;SDS011;4809;48.224;8.572;2024-01-11T14:09:55;38.10;;;25.85;;
9541;SDS011;4809;48.224;8.572;2024-01-11T14:12:20;35.38;;;25.30;;
9541;SDS011;4809;48.224;8.572;2024-01-11T14:14:46;46.40;;;30.33;;
9541;SDS011;4809;48.224;8.572;2024-01-11T14:17:11;38.75;;;27.30;;
9541;SDS011;4809;48.224;8.572;2024-01-11T14:19:36;35.85;;;26.10;;
9541;SDS011;4809;48.224;8.572;2024-01-11T14:22:02;40.13;;;27.45;;
9541;SDS011;4809;48.224;8.572;2024-01-11T14:24:27;38.88;;;27.00;;
9541;SDS011;4809;48.224;8.572;2024-01-11T14:26:54;44.78;;;31.77;;
9541;SDS011;4809;48.224;8.572;2024-01-11T14:29:20;38.80;;;27.90;;
9541;SDS011;4809;48.224;8.572;2024-01-11T14:31:46;37.90;;;28.05;;
9541;SDS011;4809;48.224;8.572;2024-01-11T14:34:11;37.40;;;26.77;;
9541;SDS011;4809;48.224;8.572;2024-01-11T14:36:37;39.30;;;29.27;;
9541;SDS011;4809;48.224;8.572;2024-01-11T14:39:03;35.67;;;24.73;;
9541;SDS011;4809;48.224;8.572;2024-01-11T14:41:32;38.80;;;26.33;;
9541;SDS011;4809;48.224;8.572;2024-01-11T14:43:59;40.45;;;27.02;;